Time;durP1;ratioP1;P1;durP2;ratioP2;P2;SDS_P1;SDS_P2;PMS_P1;PMS_P2;Temp;Humidity;BMP_temperature;BMP_pressure;BME280_temperature;BME280_humidity;BME280_pressure;Samples;Min_cycle;Max_cycle;Signal;HPM_P1;HPM_P2
2023/06/05 00:00:31;;;;;;;4.40;4.00;;;;;;;13.22;100.00;96516.00;5081199;28;20082;-67
2023/06/05 00:02:57;;;;;;;3.50;3.30;;;;;;;13.21;100.00;96520.44;5079308;28;20462;-68
2023/06/05 00:05:25;;;;;;;3.05;2.85;;;;;;;13.18;100.00;96521.56;5088220;28;20473;-68
2023/06/05 00:07:51;;;;;;;3.10;2.88;;;;;;;13.18;100.00;96518.06;5094585;28;20031;-67
2023/06/05 00:10:17;;;;;;;3.47;2.60;;;;;;;13.15;100.00;96511.25;5082441;28;20044;-68
2023/06/05 00:12:42;;;;;;;4.38;3.08;;;;;;;13.18;100.00;96508.34;5068081;28;20028;-68
2023/06/05 00:15:08;;;;;;;3.42;3.13;;;;;;;13.22;100.00;96508.06;5079889;28;20078;-68
2023/06/05 00:17:34;;;;;;;3.45;3.13;;;;;;;13.20;100.00;96502.06;5079590;28;20067;-67
2023/06/05 00:20:00;;;;;;;4.68;3.20;;;;;;;13.18;100.00;96495.13;5079018;28;20619;-67
2023/06/05 00:22:27;;;;;;;5.18;3.33;;;;;;;13.11;100.00;96509.03;5080924;28;20381;-68
2023/06/05 00:24:53;;;;;;;6.80;3.15;;;;;;;13.08;100.00;96504.03;5087238;28;20035;-68
2023/06/05 00:27:19;;;;;;;3.72;3.25;;;;;;;13.03;100.00;96502.59;5079632;28;20397;-67
2023/06/05 00:29:44;;;;;;;8.88;3.13;;;;;;;13.00;100.00;96507.34;5086272;28;20023;-68
2023/06/05 00:32:10;;;;;;;3.70;3.33;;;;;;;12.97;100.00;96497.06;5085413;28;20434;-67
2023/06/05 00:34:36;;;;;;;3.63;3.35;;;;;;;12.97;100.00;96495.22;5084863;28;20495;-67
2023/06/05 00:37:01;;;;;;;3.50;3.30;;;;;;;12.98;100.00;96488.97;5089543;28;20043;-68
2023/06/05 00:39:27;;;;;;;3.88;3.50;;;;;;;13.01;100.00;96491.34;5090769;28;20031;-68
2023/06/05 00:41:52;;;;;;;4.05;3.33;;;;;;;12.98;100.00;96496.06;5080497;28;20036;-67
2023/06/05 00:44:18;;;;;;;7.38;3.28;;;;;;;12.87;100.00;96489.09;5084952;28;20032;-67
2023/06/05 00:46:45;;;;;;;3.97;3.40;;;;;;;12.82;100.00;96480.72;5088344;28;20090;-68
2023/06/05 00:49:11;;;;;;;6.25;3.75;;;;;;;12.86;100.00;96488.25;5066593;28;20051;-68
2023/06/05 00:51:38;;;;;;;3.45;3.13;;;;;;;12.86;100.00;96485.63;5091578;28;20021;-68
2023/06/05 00:54:05;;;;;;;16.80;3.60;;;;;;;12.87;100.00;96497.84;5084845;28;20023;-67
2023/06/05 00:56:33;;;;;;;6.47;2.88;;;;;;;12.80;100.00;96502.03;5087284;28;20020;-68
2023/06/05 00:58:58;;;;;;;6.38;3.47;;;;;;;12.83;100.00;96496.47;5089461;28;20028;-68
2023/06/05 01:01:24;;;;;;;3.65;3.35;;;;;;;12.90;100.00;96505.50;5091197;28;20031;-68
2023/06/05 01:03:50;;;;;;;3.83;3.45;;;;;;;12.83;100.00;96501.75;5084559;28;20012;-67
2023/06/05 01:06:17;;;;;;;3.35;3.05;;;;;;;12.81;100.00;96503.69;5087511;28;20112;-68
2023/06/05 01:08:44;;;;;;;4.35;3.35;;;;;;;12.75;100.00;96491.84;5084045;28;20020;-68
2023/06/05 01:11:19;;;;;;;3.63;3.08;;;;;;;12.70;100.00;96490.59;5090682;28;20012;-68
2023/06/05 01:13:54;;;;;;;8.15;3.83;;;;;;;12.68;100.00;96481.97;5086997;28;20534;-68
2023/06/05 01:16:30;;;;;;;4.27;3.70;;;;;;;12.66;100.00;96487.41;5087321;28;20016;-68
2023/06/05 01:19:01;;;;;;;4.47;3.60;;;;;;;12.61;100.00;96487.78;5083231;28;20021;-68
2023/06/05 01:21:27;;;;;;;6.80;3.00;;;;;;;12.50;100.00;96484.44;5082825;28;20020;-68
2023/06/05 01:23:53;;;;;;;6.15;3.53;;;;;;;12.47;100.00;96485.50;5078993;28;20786;-68
2023/06/05 01:26:22;;;;;;;3.33;3.00;;;;;;;12.46;100.00;96479.41;5083705;28;20047;-68
2023/06/05 01:28:50;;;;;;;4.53;3.30;;;;;;;12.48;100.00;96473.97;5083275;28;20012;-67
2023/06/05 01:31:20;;;;;;;5.65;3.65;;;;;;;12.50;100.00;96469.44;5086170;28;20216;-67
2023/06/05 01:34:01;;;;;;;4.40;3.08;;;;;;;12.46;100.00;96466.22;5087321;28;20031;-67
2023/06/05 01:36:28;;;;;;;3.70;3.40;;;;;;;12.44;100.00;96470.78;5077551;28;20114;-67
2023/06/05 01:38:56;;;;;;;3.58;3.25;;;;;;;12.43;100.00;96469.13;5090744;28;20031;-67
2023/06/05 01:41:22;;;;;;;5.63;3.58;;;;;;;12.44;100.00;96468.16;5088024;28;20033;-67
2023/06/05 01:43:49;;;;;;;4.13;3.92;;;;;;;12.39;100.00;96461.59;5072866;28;20040;-67
2023/06/05 01:46:18;;;;;;;4.07;3.55;;;;;;;12.38;100.00;96459.94;5086256;28;20024;-67
2023/06/05 01:48:44;;;;;;;3.95;3.65;;;;;;;12.43;100.00;96465.63;5081089;28;20024;-67
2023/06/05 01:51:10;;;;;;;3.50;3.30;;;;;;;12.47;100.00;96467.03;5078290;28;20111;-67
2023/06/05 01:53:36;;;;;;;5.93;3.20;;;;;;;12.41;100.00;96459.66;5066002;28;20109;-67
2023/06/05 01:56:02;;;;;;;8.20;5.45;;;;;;;12.32;100.00;96448.94;5082688;28;20020;-67
2023/06/05 01:58:27;;;;;;;7.88;7.13;;;;;;;12.28;100.00;96457.25;5081497;28;20027;-67
2023/06/05 02:00:56;;;;;;;6.50;5.57;;;;;;;12.24;100.00;96450.56;5081184;28;20021;-67
2023/06/05 02:03:22;;;;;;;9.30;6.88;;;;;;;12.21;100.00;96448.22;5083691;28;20019;-68
2023/06/05 02:05:48;;;;;;;16.42;13.43;;;;;;;12.16;100.00;96453.88;5090133;28;20024;-67
2023/06/05 02:08:19;;;;;;;24.25;16.92;;;;;;;12.16;100.00;96443.31;5082244;28;20401;-68
2023/06/05 02:10:45;;;;;;;27.38;17.60;;;;;;;12.11;100.00;96440.25;5086400;28;20059;-68
2023/06/05 02:13:11;;;;;;;34.33;22.60;;;;;;;12.10;100.00;96439.41;5064730;28;20053;-68
2023/06/05 02:15:37;;;;;;;24.15;15.30;;;;;;;12.06;100.00;96445.09;5083970;28;20059;-67
2023/06/05 02:18:04;;;;;;;15.07;9.88;;;;;;;12.06;100.00;96445.09;5081816;28;20020;-68
2023/06/05 02:20:30;;;;;;;9.75;8.02;;;;;;;12.08;100.00;96440.53;5077229;28;20044;-67
2023/06/05 02:22:56;;;;;;;11.77;7.18;;;;;;;12.04;100.00;96446.03;5085838;28;20097;-67
2023/06/05 02:25:25;;;;;;;8.50;6.30;;;;;;;12.03;100.00;96436.44;5082507;28;20017;-67
2023/06/05 02:27:51;;;;;;;8.90;6.07;;;;;;;12.05;100.00;96433.69;5084393;28;20032;-67
2023/06/05 02:30:17;;;;;;;6.10;5.50;;;;;;;12.09;100.00;96429.81;5080829;28;20020;-67
2023/06/05 02:32:43;;;;;;;6.47;4.05;;;;;;;12.02;100.00;96434.78;5078325;28;20032;-67
2023/06/05 02:35:10;;;;;;;4.38;3.63;;;;;;;11.95;100.00;96428.34;5092634;28;20432;-67
2023/06/05 02:37:56;;;;;;;5.88;4.75;;;;;;;11.86;100.00;96439.69;5089278;28;20020;-67
2023/06/05 02:40:21;;;;;;;;;;;;;;;11.78;100.00;96428.94;5089266;28;20040;-67
2023/06/05 02:42:47;;;;;;;7.28;6.22;;;;;;;11.77;100.00;96429.91;5090309;28;20434;-67
2023/06/05 02:45:12;;;;;;;12.65;7.63;;;;;;;11.78;100.00;96431.59;5093630;28;20032;-67
2023/06/05 02:47:38;;;;;;;11.35;7.65;;;;;;;11.77;100.00;96424.66;5083184;28;20036;-67
2023/06/05 02:50:04;;;;;;;41.83;23.33;;;;;;;11.77;100.00;96451.88;5084909;28;20124;-67
2023/06/05 02:52:32;;;;;;;30.42;18.83;;;;;;;11.78;100.00;96442.13;5082945;28;20125;-67
2023/06/05 02:54:57;;;;;;;29.15;16.63;;;;;;;11.77;100.00;96451.03;5092076;28;20054;-67
2023/06/05 02:57:23;;;;;;;39.30;19.40;;;;;;;11.78;100.00;96452.69;5089928;28;20099;-67
2023/06/05 02:59:51;;;;;;;41.78;19.95;;;;;;;11.67;100.00;96462.38;5085256;28;20024;-66
2023/06/05 03:02:17;;;;;;;34.80;18.23;;;;;;;11.65;100.00;96459.03;5088486;28;20111;-67
2023/06/05 03:04:42;;;;;;;32.13;17.77;;;;;;;11.64;100.00;96441.53;5090383;28;20123;-67
2023/06/05 03:07:09;;;;;;;29.05;17.45;;;;;;;11.58;100.00;96453.44;5071619;28;20040;-67
2023/06/05 03:09:35;;;;;;;23.52;14.30;;;;;;;11.54;100.00;96446.75;5083465;28;20055;-67
2023/06/05 03:12:00;;;;;;;23.05;14.00;;;;;;;11.53;100.00;96444.22;5088804;28;20028;-67
2023/06/05 03:14:30;;;;;;;18.35;11.70;;;;;;;11.51;100.00;96448.78;5083840;28;20035;-67
2023/06/05 03:16:58;;;;;;;14.35;10.43;;;;;;;11.45;100.00;96453.63;5089311;28;20028;-67
2023/06/05 03:19:24;;;;;;;19.65;10.48;;;;;;;11.38;100.00;96449.81;5089243;28;20493;-67
2023/06/05 03:21:50;;;;;;;14.65;10.60;;;;;;;11.37;100.00;96444.69;5092042;28;20024;-66
2023/06/05 03:24:16;;;;;;;10.73;8.75;;;;;;;11.36;100.00;96441.19;5086814;28;20034;-67
2023/06/05 03:26:42;;;;;;;11.60;9.13;;;;;;;11.37;100.00;96445.50;5088865;28;20107;-67
2023/06/05 03:29:08;;;;;;;8.65;7.75;;;;;;;11.35;100.00;96442.16;5084146;28;20024;-67
2023/06/05 03:31:34;;;;;;;11.50;8.35;;;;;;;11.29;100.00;96434.78;5083239;28;20406;-67
2023/06/05 03:33:59;;;;;;;11.48;7.60;;;;;;;11.24;100.00;96436.97;5083657;28;20035;-67
2023/06/05 03:36:28;;;;;;;11.38;7.38;;;;;;;11.24;100.00;96436.97;5084830;28;20029;-67
2023/06/05 03:38:54;;;;;;;7.53;6.75;;;;;;;11.25;100.00;96442.09;5095074;28;20024;-67
2023/06/05 03:41:21;;;;;;;7.88;5.82;;;;;;;11.24;100.00;96440.41;5089762;28;20097;-67
2023/06/05 03:43:46;;;;;;;8.82;6.53;;;;;;;11.19;100.00;96437.34;5069785;28;20455;-67
2023/06/05 03:46:18;;;;;;;7.55;5.97;;;;;;;11.17;100.00;96437.50;5080645;28;20035;-66
2023/06/05 03:48:43;;;;;;;11.35;5.90;;;;;;;11.21;100.00;96434.59;5078795;28;20059;-66
2023/06/05 03:51:09;;;;;;;6.45;5.90;;;;;;;11.20;100.00;96435.56;5083036;28;20020;-66
2023/06/05 03:53:39;;;;;;;8.80;7.43;;;;;;;11.22;100.00;96442.34;5080104;28;20567;-67
2023/06/05 03:56:08;;;;;;;7.07;6.47;;;;;;;11.21;100.00;96435.41;5088181;28;20054;-67
2023/06/05 03:58:34;;;;;;;6.60;6.00;;;;;;;11.18;100.00;96439.16;5088534;28;20500;-66
2023/06/05 04:00:59;;;;;;;6.28;5.68;;;;;;;11.17;100.00;96439.28;5069470;28;20036;-67
2023/06/05 04:03:25;;;;;;;6.68;6.07;;;;;;;11.15;100.00;96436.75;5092221;28;20472;-66
2023/06/05 04:05:50;;;;;;;7.20;6.50;;;;;;;11.16;100.00;96438.44;5089867;28;20028;-66
2023/06/05 04:08:16;;;;;;;9.57;6.40;;;;;;;11.18;100.00;96441.78;5095620;28;20049;-66
2023/06/05 04:10:42;;;;;;;6.80;5.70;;;;;;;11.16;100.00;96434.97;5093157;28;20050;-67
2023/06/05 04:13:07;;;;;;;7.28;4.55;;;;;;;11.11;100.00;96437.97;5092272;28;20027;-66
2023/06/05 04:15:33;;;;;;;7.45;6.45;;;;;;;11.14;100.00;96440.34;5075006;28;20037;-66
2023/06/05 04:17:59;;;;;;;10.55;7.18;;;;;;;11.07;100.00;96433.91;5089440;28;20123;-66
2023/06/05 04:20:24;;;;;;;9.18;6.10;;;;;;;11.04;100.00;96434.19;5094537;28;20016;-67
2023/06/05 04:22:50;;;;;;;7.20;6.57;;;;;;;11.03;100.00;96438.59;5079405;28;20022;-67
2023/06/05 04:25:15;;;;;;;8.57;6.50;;;;;;;11.03;100.00;96437.78;5075606;28;20051;-67
2023/06/05 04:27:45;;;;;;;7.63;6.40;;;;;;;11.01;100.00;96434.44;5094226;28;20392;-67
2023/06/05 04:30:13;;;;;;;7.25;5.75;;;;;;;10.99;100.00;96436.38;5092000;28;20028;-67
2023/06/05 04:32:39;;;;;;;5.38;4.88;;;;;;;10.98;100.00;96438.16;5075542;28;20028;-67
2023/06/05 04:35:06;;;;;;;6.53;4.88;;;;;;;11.00;100.00;96440.66;5087885;28;20036;-66
2023/06/05 04:37:36;;;;;;;5.20;4.78;;;;;;;10.99;100.00;96439.00;5078087;28;20032;-66
2023/06/05 04:40:05;;;;;;;5.75;5.15;;;;;;;11.01;100.00;96440.53;5072920;28;20028;-67
2023/06/05 04:42:32;;;;;;;7.45;4.75;;;;;;;11.00;100.00;96440.66;5082897;28;20055;-66
2023/06/05 04:45:00;;;;;;;5.95;5.32;;;;;;;11.04;100.00;96444.72;5090497;28;20097;-66
2023/06/05 04:47:27;;;;;;;5.97;5.40;;;;;;;11.05;100.00;96443.75;5073292;28;20024;-67
2023/06/05 04:49:53;;;;;;;5.18;4.75;;;;;;;11.05;100.00;96441.13;5065970;28;20551;-67
2023/06/05 04:52:23;;;;;;;5.07;4.60;;;;;;;11.08;100.00;96437.41;5092777;28;20156;-67
2023/06/05 04:54:48;;;;;;;5.40;4.97;;;;;;;11.11;100.00;96447.69;5090879;28;20157;-66
2023/06/05 04:57:16;;;;;;;6.50;5.13;;;;;;;11.12;100.00;96452.00;5084601;28;20113;-66
2023/06/05 04:59:45;;;;;;;6.45;5.80;;;;;;;11.10;100.00;96444.22;5080015;28;20084;-66
2023/06/05 05:02:10;;;;;;;5.63;5.13;;;;;;;11.16;100.00;96459.53;5075503;28;20380;-66
2023/06/05 05:04:36;;;;;;;5.97;5.10;;;;;;;11.20;100.00;96457.47;5074716;28;20051;-66
2023/06/05 05:07:02;;;;;;;5.63;4.32;;;;;;;11.24;100.00;96452.78;5075930;28;20024;-66
2023/06/05 05:09:28;;;;;;;7.20;4.88;;;;;;;11.33;100.00;96452.00;5074158;28;20071;-66
2023/06/05 05:11:53;;;;;;;5.78;4.55;;;;;;;11.42;100.00;96447.75;5065678;28;20044;-66
2023/06/05 05:14:19;;;;;;;5.72;5.30;;;;;;;11.56;100.00;96450.09;5073577;28;20032;-66
2023/06/05 05:16:44;;;;;;;5.40;4.70;;;;;;;11.61;100.00;96453.16;5069984;28;20025;-66
2023/06/05 05:19:10;;;;;;;5.30;4.80;;;;;;;11.65;100.00;96458.19;5065321;28;20059;-66
2023/06/05 05:21:36;;;;;;;5.50;5.00;;;;;;;11.72;100.00;96462.81;5072728;28;20031;-66
2023/06/05 05:24:01;;;;;;;6.28;5.65;;;;;;;11.86;100.00;96464.25;5066481;28;20088;-66
2023/06/05 05:26:27;;;;;;;6.50;5.90;;;;;;;12.01;100.00;96467.41;5071775;28;20036;-66
2023/06/05 05:28:52;;;;;;;8.52;5.80;;;;;;;12.16;100.00;96467.06;5060172;28;20048;-65
2023/06/05 05:31:18;;;;;;;9.13;6.40;;;;;;;12.25;100.00;96484.75;5072286;28;20039;-67
2023/06/05 05:33:44;;;;;;;6.60;6.10;;;;;;;12.36;100.00;96483.00;5071521;28;20119;-66
2023/06/05 05:36:09;;;;;;;7.03;6.13;;;;;;;12.33;100.00;96478.81;5064836;28;20038;-66
2023/06/05 05:38:35;;;;;;;5.63;5.22;;;;;;;12.35;100.00;96481.31;5069566;28;20400;-66
2023/06/05 05:41:00;;;;;;;6.72;5.68;;;;;;;12.45;100.00;96484.81;5055195;28;20021;-66
2023/06/05 05:43:26;;;;;;;6.22;5.53;;;;;;;12.54;100.00;96472.63;5069715;28;20333;-66
2023/06/05 05:45:51;;;;;;;6.20;5.22;;;;;;;12.68;100.00;96476.69;5059997;28;20074;-66
2023/06/05 05:48:17;;;;;;;5.93;5.38;;;;;;;12.81;100.00;96477.28;5061611;28;20020;-67
2023/06/05 05:50:43;;;;;;;5.75;5.20;;;;;;;12.92;100.00;96484.25;5063666;28;20052;-67
2023/06/05 05:53:08;;;;;;;5.90;5.13;;;;;;;13.08;100.00;96469.66;5060574;28;20029;-66
2023/06/05 05:55:34;;;;;;;5.63;5.07;;;;;;;13.16;100.00;96468.00;5068739;28;20117;-67
2023/06/05 05:57:59;;;;;;;4.70;4.40;;;;;;;13.20;100.00;96470.34;5068526;28;20036;-66
2023/06/05 06:00:25;;;;;;;4.55;3.88;;;;;;;13.30;100.00;96468.53;5066401;28;20155;-68
2023/06/05 06:02:52;;;;;;;5.75;5.35;;;;;;;13.39;100.00;96462.41;5073332;28;20035;-68
2023/06/05 06:05:18;;;;;;;6.15;5.40;;;;;;;13.52;100.00;96458.66;5069414;28;20054;-68
2023/06/05 06:07:43;;;;;;;5.32;4.93;;;;;;;13.67;100.00;96462.53;5070163;28;20524;-69
2023/06/05 06:10:11;;;;;;;6.68;6.18;;;;;;;13.69;100.00;96465.03;5083041;28;20053;-69
2023/06/05 06:12:37;;;;;;;5.43;4.95;;;;;;;13.82;100.00;96470.03;5070295;28;20089;-67
2023/06/05 06:15:03;;;;;;;4.50;4.20;;;;;;;13.92;100.00;96473.47;5063857;28;20351;-68
2023/06/05 06:17:29;;;;;;;7.55;6.75;;;;;;;14.01;100.00;96475.25;5069894;28;20029;-69
2023/06/05 06:19:55;;;;;;;8.63;7.93;;;;;;;14.07;100.00;96471.19;5070548;28;20035;-69
2023/06/05 06:22:20;;;;;;;8.10;6.90;;;;;;;14.16;100.00;96464.19;5056065;28;20025;-69
2023/06/05 06:24:46;;;;;;;3.00;2.80;;;;;;;14.31;100.00;96469.84;5072450;28;20458;-69
2023/06/05 06:27:12;;;;;;;3.53;2.20;;;;;;;14.55;100.00;96471.97;5068371;28;20033;-68
2023/06/05 06:29:58;;;;;;;2.60;2.40;;;;;;;14.68;100.00;96468.13;5057214;28;20025;-68
2023/06/05 06:32:25;;;;;;;2.47;2.28;;;;;;;14.78;100.00;96466.28;5070828;28;20032;-69
2023/06/05 06:34:51;;;;;;;5.75;2.45;;;;;;;14.93;100.00;96463.13;5068595;28;20033;-69
2023/06/05 06:37:19;;;;;;;5.65;2.47;;;;;;;15.11;100.00;96456.00;5068710;28;20071;-69
2023/06/05 06:39:45;;;;;;;2.83;2.47;;;;;;;15.44;100.00;96452.78;5067884;28;20056;-70
2023/06/05 06:42:12;;;;;;;3.90;2.78;;;;;;;15.54;100.00;96450.03;5068017;28;20032;-69
2023/06/05 06:44:38;;;;;;;4.63;2.45;;;;;;;15.83;100.00;96440.97;5074477;28;20025;-70
2023/06/05 06:47:03;;;;;;;3.30;2.40;;;;;;;16.20;100.00;96439.03;5072047;28;20489;-69
2023/06/05 06:49:29;;;;;;;2.60;2.50;;;;;;;16.29;100.00;96428.28;5065355;28;20029;-70
2023/06/05 06:51:54;;;;;;;3.28;2.40;;;;;;;16.63;100.00;96415.09;5071203;28;20052;-70
2023/06/05 06:54:21;;;;;;;2.70;2.40;;;;;;;16.87;100.00;96406.34;5070577;28;20382;-70
2023/06/05 06:56:46;;;;;;;3.90;2.50;;;;;;;17.12;100.00;96390.44;5062559;28;20020;-70
2023/06/05 06:59:13;;;;;;;2.60;2.40;;;;;;;17.37;100.00;96366.47;5057142;28;20055;-70
2023/06/05 07:01:46;;;;;;;2.83;2.22;;;;;;;17.66;100.00;96351.78;5068460;28;20047;-70
2023/06/05 07:04:20;;;;;;;2.10;1.90;;;;;;;17.88;100.00;96331.59;5072028;28;20393;-69
2023/06/05 07:06:48;;;;;;;2.55;2.05;;;;;;;18.08;100.00;96299.22;5072662;28;20029;-69
2023/06/05 07:09:13;;;;;;;2.78;1.92;;;;;;;18.23;100.00;96288.66;5071725;28;20056;-69
2023/06/05 07:11:40;;;;;;;2.65;2.08;;;;;;;18.41;100.00;96259.88;5075346;28;20020;-69
2023/06/05 07:14:07;;;;;;;4.47;2.40;;;;;;;18.67;100.00;96260.50;5094223;28;20158;-70
2023/06/05 07:16:33;;;;;;;2.20;2.10;;;;;;;18.85;100.00;96221.03;5085745;28;20493;-67
2023/06/05 07:18:58;;;;;;;2.33;2.22;;;;;;;19.09;100.00;96229.00;5103311;28;20032;-67
2023/06/05 07:21:23;;;;;;;2.53;2.13;;;;;;;19.31;100.00;96224.59;5078559;28;20028;-68
2023/06/05 07:23:53;;;;;;;2.63;2.42;;;;;;;19.37;100.00;96215.88;5088492;28;20024;-67
2023/06/05 07:26:18;;;;;;;2.63;2.42;;;;;;;19.51;100.00;96230.22;5075855;28;20032;-67
2023/06/05 07:28:44;;;;;;;2.60;2.40;;;;;;;19.85;100.00;96235.97;5077830;28;20097;-67
2023/06/05 07:31:10;;;;;;;2.65;2.10;;;;;;;20.10;100.00;96251.72;5086274;28;20034;-67
2023/06/05 07:33:35;;;;;;;2.50;2.30;;;;;;;20.09;100.00;96236.69;5078448;28;20264;-68
2023/06/05 07:36:01;;;;;;;2.80;2.60;;;;;;;20.12;100.00;96247.00;5076354;28;20148;-67
2023/06/05 07:38:27;;;;;;;2.65;2.55;;;;;;;20.29;100.00;96247.59;5095280;28;20450;-67
2023/06/05 07:40:52;;;;;;;6.63;2.17;;;;;;;20.35;100.00;96228.13;5075445;28;20029;-67
2023/06/05 07:43:18;;;;;;;5.35;2.35;;;;;;;20.64;100.00;96209.44;5078505;28;20031;-67
2023/06/05 07:45:43;;;;;;;2.65;2.45;;;;;;;20.85;100.00;96198.72;5080630;28;20028;-66
2023/06/05 07:48:09;;;;;;;2.80;2.60;;;;;;;20.67;100.00;96180.47;5080709;28;20047;-67
2023/06/05 07:50:34;;;;;;;2.85;2.60;;;;;;;20.85;100.00;96190.72;5086178;28;20032;-66
2023/06/05 07:53:01;;;;;;;3.20;2.90;;;;;;;21.15;100.00;96195.88;5089318;28;20027;-67
2023/06/05 07:55:26;;;;;;;3.85;3.55;;;;;;;21.59;100.00;96136.75;5076554;28;20028;-66
2023/06/05 07:57:52;;;;;;;4.25;3.92;;;;;;;20.52;100.00;96134.25;5080859;28;20028;-66
2023/06/05 08:00:19;;;;;;;5.07;4.13;;;;;;;20.55;100.00;96172.16;5092898;28;20028;-66
2023/06/05 08:02:44;;;;;;;5.22;3.97;;;;;;;20.61;100.00;96194.63;5079874;28;20393;-66
2023/06/05 08:05:10;;;;;;;2.85;2.65;;;;;;;20.93;100.00;96202.31;5082495;28;20024;-66
2023/06/05 08:07:35;;;;;;;2.53;2.38;;;;;;;21.48;100.00;96170.28;5084074;28;20024;-66
2023/06/05 08:10:01;;;;;;;4.05;2.65;;;;;;;21.44;100.00;96137.72;5088443;28;20044;-66
2023/06/05 08:12:26;;;;;;;2.28;2.08;;;;;;;21.74;100.00;96160.72;5078171;28;20020;-66
2023/06/05 08:14:52;;;;;;;2.65;2.45;;;;;;;;;;5086952;28;20040;-66
2023/06/05 08:17:17;;;;;;;5.70;2.87;;;;;;;22.21;100.00;96120.59;5092963;28;20031;-65
2023/06/05 08:19:43;;;;;;;2.95;2.30;;;;;;;22.60;100.00;96099.41;5093284;28;20804;-66
2023/06/05 08:22:08;;;;;;;2.72;2.53;;;;;;;22.45;100.00;96113.00;5086906;28;20550;-66
2023/06/05 08:24:34;;;;;;;2.47;2.38;;;;;;;22.97;100.00;96072.88;5084450;28;20028;-67
2023/06/05 08:27:00;;;;;;;2.65;2.50;;;;;;;22.96;100.00;96083.84;5084935;28;20070;-67
2023/06/05 08:29:27;;;;;;;4.75;2.72;;;;;;;23.14;100.00;96126.94;5091533;28;20052;-66
2023/06/05 08:31:52;;;;;;;3.47;2.47;;;;;;;23.27;100.00;96144.06;5079406;28;20082;-66
2023/06/05 08:34:18;;;;;;;2.53;2.33;;;;;;;22.53;100.00;96120.84;5085680;28;20099;-65
2023/06/05 08:36:44;;;;;;;2.58;2.35;;;;;;;22.27;100.00;96130.53;5084699;28;20085;-66
2023/06/05 08:39:10;;;;;;;2.70;2.50;;;;;;;22.55;100.00;96121.47;5085738;28;20042;-66
2023/06/05 08:41:36;;;;;;;4.78;1.90;;;;;;;22.33;100.00;96118.97;5092438;28;20020;-66
2023/06/05 08:44:02;;;;;;;2.45;2.25;;;;;;;22.20;100.00;96110.91;5092525;28;20042;-66
2023/06/05 08:46:30;;;;;;;2.60;2.40;;;;;;;21.99;100.00;96095.84;5083812;28;20020;-66
2023/06/05 08:48:57;;;;;;;2.50;2.30;;;;;;;22.18;100.00;96105.75;5079898;28;20031;-65
2023/06/05 08:51:23;;;;;;;3.60;2.30;;;;;;;22.10;100.00;96091.72;5088276;28;20111;-66
2023/06/05 08:54:00;;;;;;;2.22;1.98;;;;;;;22.17;100.00;96125.56;5091397;28;20103;-66
2023/06/05 08:56:27;;;;;;;2.35;2.10;;;;;;;22.13;100.00;96115.44;5086106;28;20084;-66
2023/06/05 08:58:54;;;;;;;2.50;2.30;;;;;;;22.20;100.00;96107.41;5089457;28;20024;-66
2023/06/05 09:01:19;;;;;;;2.80;2.60;;;;;;;22.02;100.00;96090.06;5089477;28;20099;-66
2023/06/05 09:03:45;;;;;;;2.13;2.03;;;;;;;22.35;100.00;96129.50;5089691;28;20071;-66
2023/06/05 09:06:10;;;;;;;3.60;3.00;;;;;;;22.86;100.00;96111.13;5093204;28;20202;-66
2023/06/05 09:08:36;;;;;;;3.45;2.40;;;;;;;22.49;100.00;96078.53;5092355;28;20059;-66
2023/06/05 09:11:20;;;;;;;2.28;2.08;;;;;;;22.82;100.00;96115.25;5088597;28;20119;-66
2023/06/05 09:13:46;;;;;;;4.10;2.05;;;;;;;23.07;100.00;96110.03;5091950;28;20377;-67
2023/06/05 09:16:11;;;;;;;2.13;2.03;;;;;;;23.45;100.00;96071.69;5091047;28;20105;-66
2023/06/05 09:18:52;;;;;;;3.92;2.30;;;;;;;22.72;100.00;96035.19;5091438;28;20059;-66
2023/06/05 09:21:17;;;;;;;2.45;2.25;;;;;;;22.21;100.00;96058.13;5089176;28;20402;-66
2023/06/05 09:23:43;;;;;;;2.28;2.05;;;;;;;22.79;100.00;96073.53;5092175;28;20024;-66
2023/06/05 09:26:10;;;;;;;3.22;2.13;;;;;;;23.35;100.00;96057.06;5092297;28;20100;-66
2023/06/05 09:28:35;;;;;;;2.28;2.17;;;;;;;23.24;100.00;96082.69;5074213;28;20496;-66
2023/06/05 09:31:02;;;;;;;2.55;2.30;;;;;;;23.39;100.00;96071.72;5074176;28;20024;-66
2023/06/05 09:33:35;;;;;;;2.55;2.40;;;;;;;23.48;100.00;96072.28;5075503;28;20045;-66
2023/06/05 09:36:08;;;;;;;2.13;2.03;;;;;;;22.99;100.00;96040.47;5082540;28;20469;-66
2023/06/05 09:38:34;;;;;;;2.70;2.40;;;;;;;23.14;100.00;96032.13;5103232;28;20103;-66
2023/06/05 09:41:08;;;;;;;3.00;2.25;;;;;;;23.30;100.00;96053.16;5090967;28;20537;-67
2023/06/05 09:43:36;;;;;;;2.93;2.47;;;;;;;23.51;100.00;96051.19;5078552;28;20044;-66
2023/06/05 09:46:14;;;;;;;2.65;2.30;;;;;;;23.43;100.00;96073.75;5094186;28;20031;-66
2023/06/05 09:48:41;;;;;;;2.15;2.05;;;;;;;23.63;100.00;96034.38;5083153;28;20122;-67
2023/06/05 09:51:15;;;;;;;2.40;2.30;;;;;;;23.83;100.00;96043.13;5086241;28;20027;-66
2023/06/05 09:53:42;;;;;;;5.05;2.60;;;;;;;23.53;100.00;96022.25;5082820;28;20032;-66
2023/06/05 09:56:19;;;;;;;2.70;2.50;;;;;;;23.33;100.00;96041.19;5094379;28;20032;-66
2023/06/05 09:58:49;;;;;;;4.50;2.22;;;;;;;24.02;100.00;96021.72;5082318;28;20195;-66
2023/06/05 10:01:23;;;;;;;2.60;2.40;;;;;;;23.97;100.00;96056.50;5088679;28;20293;-66
2023/06/05 10:04:01;;;;;;;2.85;2.58;;;;;;;24.09;100.00;96064.72;5081949;28;20070;-67
2023/06/05 10:06:28;;;;;;;5.13;2.58;;;;;;;24.66;100.00;96015.38;5089888;28;20122;-66
2023/06/05 10:08:55;;;;;;;2.45;2.35;;;;;;;24.58;100.00;96019.97;5094947;28;20377;-66
2023/06/05 10:11:21;;;;;;;2.55;2.35;;;;;;;24.55;100.00;96001.59;5094458;28;20103;-66
2023/06/05 10:13:48;;;;;;;2.70;2.40;;;;;;;25.14;100.00;95997.63;5087666;28;20064;-66
2023/06/05 10:16:14;;;;;;;2.55;2.35;;;;;;;25.16;100.00;95976.66;5076159;28;20020;-66
2023/06/05 10:18:40;;;;;;;2.33;2.22;;;;;;;24.72;100.00;95982.16;5095298;28;20019;-66
2023/06/05 10:21:06;;;;;;;2.33;2.10;;;;;;;25.16;100.00;95985.59;5094972;28;20016;-67
2023/06/05 10:23:33;;;;;;;3.45;2.42;;;;;;;24.99;100.00;96008.78;5094984;28;20514;-66
2023/06/05 10:26:06;;;;;;;2.17;2.05;;;;;;;25.73;100.00;96027.50;5086492;28;20565;-66
2023/06/05 10:29:00;;;;;;;2.35;2.25;;;;;;;25.73;100.00;95953.91;5091181;28;20070;-66
2023/06/05 10:31:29;;;;;;;2.00;1.90;;;;;;;26.09;100.00;95935.06;5095074;28;20032;-67
2023/06/05 10:34:29;;;;;;;2.30;2.20;;;;;;;26.18;100.00;95949.84;5094421;28;20083;-66
2023/06/05 10:37:36;;;;;;;3.45;2.78;;;;;;;26.02;100.00;95940.56;5094461;28;20074;-66
2023/06/05 10:40:04;;;;;;;2.83;2.05;;;;;;;26.48;100.00;95924.63;5086914;28;20031;-66
2023/06/05 10:42:30;;;;;;;2.22;2.03;;;;;;;26.19;100.00;95911.03;5087256;28;20046;-66
2023/06/05 10:44:56;;;;;;;4.35;2.28;;;;;;;26.24;100.00;95902.22;5090568;28;20480;-66
2023/06/05 10:47:34;;;;;;;4.28;2.30;;;;;;;25.70;100.00;95906.66;5097450;28;20496;-66
2023/06/05 10:50:17;;;;;;;2.40;2.30;;;;;;;25.75;100.00;95922.16;5083348;28;20077;-66
2023/06/05 10:52:43;;;;;;;3.20;2.72;;;;;;;25.93;100.00;95964.34;5090791;28;20112;-66
2023/06/05 10:55:12;;;;;;;2.78;2.53;;;;;;;26.42;100.00;95931.78;5092588;28;20110;-66
2023/06/05 10:57:56;;;;;;;4.25;2.70;;;;;;;25.96;100.00;95888.38;5091531;28;20107;-66
2023/06/05 11:00:21;;;;;;;2.83;2.63;;;;;;;25.84;100.00;95930.72;5093039;28;20286;-66
2023/06/05 11:02:47;;;;;;;2.63;2.42;;;;;;;26.24;100.00;95921.94;5093142;28;20515;-66
2023/06/05 11:05:13;;;;;;;3.22;2.95;;;;;;;25.63;100.00;95886.25;5093577;28;20040;-67
2023/06/05 11:07:39;;;;;;;4.50;2.75;;;;;;;25.00;100.00;95900.88;5080775;28;20141;-66
2023/06/05 11:10:11;;;;;;;3.05;2.83;;;;;;;25.82;100.00;95906.66;5093005;28;20040;-66
2023/06/05 11:12:42;;;;;;;3.22;2.90;;;;;;;26.00;100.00;95888.72;5093020;28;20031;-67
2023/06/05 11:15:09;;;;;;;2.83;2.72;;;;;;;26.66;100.00;95876.94;5090621;28;20020;-66
2023/06/05 11:17:43;;;;;;;2.97;2.78;;;;;;;26.44;100.00;95874.88;5094376;28;20059;-66
2023/06/05 11:20:23;;;;;;;2.92;2.72;;;;;;;27.17;100.00;95869.78;5091389;28;20019;-66
2023/06/05 11:22:58;;;;;;;3.10;2.80;;;;;;;27.02;100.00;95856.00;5083065;28;20052;-66
2023/06/05 11:25:26;;;;;;;3.42;2.90;;;;;;;26.45;100.00;95844.13;5092205;28;20349;-66